Time;durP1;ratioP1;P1;durP2;ratioP2;P2;SDS_P1;SDS_P2;PMS_P1;PMS_P2;Temp;Humidity;BMP_temperature;BMP_pressure;BME280_temperature;BME280_humidity;BME280_pressure;Samples;Min_cycle;Max_cycle;Signal;HPM_P1;HPM_P2
2024/02/02 00:00:16;;;;;;;15.40;12.02;;;6.80;99.90;;;;;;5089398;28;20211;-81
2024/02/02 00:02:44;;;;;;;14.65;12.10;;;6.70;99.90;;;;;;5076095;28;20193;-81
2024/02/02 00:05:10;;;;;;;14.30;11.80;;;6.70;99.90;;;;;;5083589;28;20200;-81
2024/02/02 00:07:37;;;;;;;16.38;11.70;;;6.70;99.90;;;;;;5079072;28;20220;-81
2024/02/02 00:10:05;;;;;;;14.63;11.57;;;6.70;99.90;;;;;;5085480;28;20224;-81
2024/02/02 00:12:31;;;;;;;14.32;11.00;;;6.70;99.90;;;;;;5085727;28;20220;-81
2024/02/02 00:14:59;;;;;;;14.05;11.00;;;6.80;99.90;;;;;;5092339;28;20200;-82
2024/02/02 00:17:26;;;;;;;15.23;11.30;;;7.00;99.90;;;;;;5083272;28;20276;-81
2024/02/02 00:19:54;;;;;;;11.98;10.40;;;7.00;99.90;;;;;;5087971;28;20205;-81
2024/02/02 00:22:24;;;;;;;14.52;10.98;;;7.00;99.90;;;;;;5088886;28;20205;-81
2024/02/02 00:24:51;;;;;;;13.82;10.77;;;6.90;99.90;;;;;;5088580;28;20216;-82
2024/02/02 00:27:19;;;;;;;12.75;10.02;;;6.80;99.90;;;;;;5081518;28;20279;-81
2024/02/02 00:29:46;;;;;;;13.65;10.05;;;6.80;99.90;;;;;;5090234;28;20927;-82
2024/02/02 00:32:13;;;;;;;13.95;10.43;;;6.80;99.90;;;;;;5084321;28;20235;-81
2024/02/02 00:34:40;;;;;;;14.68;10.50;;;6.80;99.90;;;;;;5088794;28;20560;-81
2024/02/02 00:37:08;;;;;;;12.82;10.25;;;6.80;99.90;;;;;;5091910;28;20211;-81
2024/02/02 00:39:35;;;;;;;11.25;9.18;;;6.70;99.90;;;;;;5091889;28;20197;-81
2024/02/02 00:42:02;;;;;;;15.23;10.82;;;6.70;99.90;;;;;;5086783;28;20213;-81
2024/02/02 00:44:29;;;;;;;14.65;11.05;;;6.70;99.90;;;;;;5088801;28;20205;-82
2024/02/02 00:46:56;;;;;;;15.90;12.80;;;6.70;99.90;;;;;;5080587;28;20657;-81
2024/02/02 00:49:24;;;;;;;14.82;11.82;;;6.80;99.90;;;;;;5089431;28;20579;-81
2024/02/02 00:51:51;;;;;;;13.85;12.00;;;6.90;99.90;;;;;;5073175;28;20220;-81
2024/02/02 00:54:19;;;;;;;16.38;12.80;;;6.90;99.90;;;;;;5086713;28;20212;-81
2024/02/02 00:56:46;;;;;;;14.02;11.43;;;6.90;99.90;;;;;;5089343;28;20212;-81
2024/02/02 00:59:12;;;;;;;17.33;13.10;;;6.80;99.90;;;;;;5090435;28;20204;-81
2024/02/02 01:01:40;;;;;;;15.45;11.35;;;6.80;99.90;;;;;;5091532;28;20254;-81
2024/02/02 01:04:08;;;;;;;12.82;10.68;;;6.70;99.90;;;;;;5089674;28;20262;-81
2024/02/02 01:06:35;;;;;;;14.27;10.95;;;6.70;99.90;;;;;;5092258;28;20783;-81
2024/02/02 01:09:02;;;;;;;15.93;11.38;;;6.60;99.90;;;;;;5083872;28;20211;-81
2024/02/02 01:11:30;;;;;;;17.42;11.82;;;6.70;99.90;;;;;;5092902;28;20221;-81
2024/02/02 01:13:57;;;;;;;13.10;11.02;;;6.70;99.90;;;;;;5091280;28;20192;-81
2024/02/02 01:16:23;;;;;;;13.25;11.80;;;6.60;99.90;;;;;;5082732;28;20197;-81
2024/02/02 01:18:50;;;;;;;17.00;13.07;;;6.60;99.90;;;;;;5081004;28;20236;-81
2024/02/02 01:21:17;;;;;;;15.57;12.02;;;6.50;99.90;;;;;;5091048;28;20200;-81
2024/02/02 01:23:44;;;;;;;15.85;11.70;;;6.50;99.90;;;;;;5083493;28;20209;-82
2024/02/02 01:26:10;;;;;;;14.43;12.15;;;6.60;99.90;;;;;;5088702;28;20209;-81
2024/02/02 01:28:38;;;;;;;13.85;11.48;;;6.50;99.90;;;;;;5098028;28;20204;-81
2024/02/02 01:31:05;;;;;;;14.73;11.80;;;6.50;99.90;;;;;;5084828;28;20279;-82
2024/02/02 01:33:32;;;;;;;15.95;12.63;;;6.50;99.90;;;;;;5086116;28;20196;-82
2024/02/02 01:35:59;;;;;;;13.80;11.35;;;6.40;99.90;;;;;;5084253;28;20200;-81
2024/02/02 01:38:25;;;;;;;14.77;11.05;;;6.50;99.90;;;;;;5082492;28;20212;-81
2024/02/02 01:40:55;;;;;;;14.00;10.80;;;6.50;99.90;;;;;;5091154;28;20192;-81
2024/02/02 01:43:23;;;;;;;12.35;10.65;;;6.40;99.90;;;;;;5088597;28;20211;-81
2024/02/02 01:45:52;;;;;;;14.15;10.75;;;6.30;99.90;;;;;;5086716;28;20196;-81
2024/02/02 01:48:18;;;;;;;12.52;10.93;;;6.40;99.90;;;;;;5080978;28;20197;-82
2024/02/02 01:50:45;;;;;;;14.05;11.25;;;6.30;99.90;;;;;;5088742;28;20567;-81
2024/02/02 01:53:12;;;;;;;13.93;9.68;;;6.30;99.90;;;;;;5091628;28;20224;-81
2024/02/02 01:55:39;;;;;;;12.98;10.43;;;6.30;99.90;;;;;;5078422;28;20193;-81
2024/02/02 01:58:06;;;;;;;11.15;9.07;;;6.30;99.90;;;;;;5082983;28;20213;-81
2024/02/02 02:00:33;;;;;;;13.10;10.20;;;6.30;99.90;;;;;;5084546;28;20205;-81
2024/02/02 02:03:01;;;;;;;11.30;9.07;;;6.30;99.90;;;;;;5084359;28;20197;-81
2024/02/02 02:05:28;;;;;;;11.82;8.88;;;6.40;99.90;;;;;;5089760;28;20192;-81
2024/02/02 02:07:54;;;;;;;11.52;8.35;;;6.30;98.90;;;;;;5085230;28;20192;-81
2024/02/02 02:10:21;;;;;;;11.38;8.75;;;6.20;99.20;;;;;;5082068;28;20189;-81
2024/02/02 02:12:50;;;;;;;13.15;9.30;;;6.40;99.00;;;;;;5085221;28;20224;-81
2024/02/02 02:15:17;;;;;;;12.57;8.80;;;6.30;98.60;;;;;;5087357;28;20279;-82
2024/02/02 02:17:44;;;;;;;12.98;9.73;;;6.30;98.90;;;;;;5086937;28;20203;-81
2024/02/02 02:20:14;;;;;;;11.25;9.13;;;6.20;99.20;;;;;;5085463;28;20280;-81
2024/02/02 02:22:42;;;;;;;11.55;9.05;;;6.20;99.10;;;;;;5084058;28;20656;-81
2024/02/02 02:25:09;;;;;;;10.93;9.05;;;6.10;98.90;;;;;;5085160;28;20200;-81
2024/02/02 02:27:36;;;;;;;13.13;8.77;;;6.00;99.10;;;;;;5082586;28;20684;-81
2024/02/02 02:30:04;;;;;;;12.85;9.73;;;5.90;99.10;;;;;;5091050;28;20201;-81
2024/02/02 02:32:30;;;;;;;12.50;9.63;;;5.90;99.60;;;;;;5086676;28;20220;-81
2024/02/02 02:34:58;;;;;;;12.80;10.20;;;5.80;99.90;;;;;;5086685;28;20209;-81
2024/02/02 02:37:24;;;;;;;13.68;10.13;;;5.80;99.90;;;;;;5090339;28;20220;-81
2024/02/02 02:39:53;;;;;;;15.38;10.55;;;5.80;99.90;;;;;;5086630;28;20657;-81
2024/02/02 02:42:20;;;;;;;12.35;10.68;;;5.70;99.90;;;;;;5086544;28;20197;-81
2024/02/02 02:44:46;;;;;;;15.10;11.57;;;5.70;99.90;;;;;;5088364;28;20705;-82
2024/02/02 02:47:13;;;;;;;14.15;11.07;;;5.60;99.90;;;;;;5081797;28;20193;-81
2024/02/02 02:49:40;;;;;;;16.67;12.25;;;5.70;99.90;;;;;;5087151;28;20193;-81
2024/02/02 02:52:07;;;;;;;15.50;11.63;;;5.60;99.90;;;;;;5088833;28;20221;-81
2024/02/02 02:54:34;;;;;;;15.43;11.57;;;5.70;99.90;;;;;;5083660;28;20193;-82
2024/02/02 02:57:02;;;;;;;14.20;10.80;;;5.80;99.90;;;;;;5085067;28;20235;-81
2024/02/02 02:59:30;;;;;;;13.73;10.65;;;5.90;99.90;;;;;;5083954;28;20208;-81
2024/02/02 03:01:57;;;;;;;12.85;9.85;;;6.10;99.90;;;;;;5084996;28;20235;-82
2024/02/02 03:04:23;;;;;;;16.00;10.32;;;6.00;99.90;;;;;;5080699;28;20184;-81
2024/02/02 03:06:50;;;;;;;17.00;11.63;;;5.90;99.90;;;;;;5085275;28;20201;-82
2024/02/02 03:09:17;;;;;;;16.50;10.63;;;6.00;99.90;;;;;;5086158;28;20193;-82
2024/02/02 03:11:44;;;;;;;17.10;10.88;;;5.90;99.90;;;;;;5085148;28;20193;-81
2024/02/02 03:14:12;;;;;;;15.40;10.88;;;5.90;99.90;;;;;;5084007;28;20200;-81
2024/02/02 03:16:39;;;;;;;15.88;11.68;;;5.80;99.90;;;;;;5087585;28;20671;-81
2024/02/02 03:19:07;;;;;;;14.20;11.43;;;5.90;99.90;;;;;;5088605;28;20750;-81
2024/02/02 03:21:34;;;;;;;14.77;11.00;;;5.90;99.90;;;;;;5080171;28;20196;-81
2024/02/02 03:24:01;;;;;;;14.25;10.95;;;5.90;99.90;;;;;;5084145;28;20224;-81
2024/02/02 03:26:28;;;;;;;15.73;12.32;;;5.80;99.90;;;;;;5083877;28;20192;-81
2024/02/02 03:28:54;;;;;;;15.20;12.00;;;5.70;99.90;;;;;;5084853;28;20223;-81
2024/02/02 03:31:23;;;;;;;20.95;13.07;;;5.70;99.90;;;;;;5087826;28;20215;-81
2024/02/02 03:33:50;;;;;;;16.05;12.98;;;5.60;99.90;;;;;;5081871;28;20692;-81
2024/02/02 03:36:17;;;;;;;19.92;13.05;;;5.60;99.90;;;;;;5087408;28;20265;-82
2024/02/02 03:38:44;;;;;;;20.20;13.15;;;5.70;99.90;;;;;;5081651;28;20200;-81
2024/02/02 03:41:11;;;;;;;19.85;13.85;;;5.70;99.90;;;;;;5078831;28;20212;-81
2024/02/02 03:43:37;;;;;;;16.92;13.48;;;5.70;99.90;;;;;;5083511;28;20991;-81
2024/02/02 03:46:05;;;;;;;22.63;14.27;;;5.70;99.90;;;;;;5086466;28;20197;-81
2024/02/02 03:48:33;;;;;;;18.15;14.02;;;5.60;99.90;;;;;;5082793;28;20204;-82
2024/02/02 03:50:59;;;;;;;18.88;14.05;;;5.70;99.90;;;;;;5084412;28;20205;-82
2024/02/02 03:53:26;;;;;;;15.90;12.98;;;5.80;99.90;;;;;;5084762;28;20613;-81
2024/02/02 03:55:53;;;;;;;18.52;12.95;;;5.80;99.90;;;;;;5088500;28;20219;-81
2024/02/02 03:58:20;;;;;;;16.15;13.13;;;5.80;99.90;;;;;;5081024;28;20200;-82
2024/02/02 04:00:47;;;;;;;15.73;12.45;;;5.80;99.90;;;;;;5070263;28;20227;-81
2024/02/02 04:03:14;;;;;;;19.73;13.25;;;6.00;99.90;;;;;;5084624;28;20207;-82
2024/02/02 04:05:42;;;;;;;15.68;12.35;;;6.00;99.90;;;;;;5086731;28;20199;-81
2024/02/02 04:08:08;;;;;;;14.25;11.82;;;6.00;99.90;;;;;;5086508;28;20212;-81
2024/02/02 04:10:35;;;;;;;20.15;12.77;;;5.90;99.90;;;;;;5083322;28;20196;-83
2024/02/02 04:13:02;;;;;;;16.40;13.30;;;5.90;99.90;;;;;;5080093;28;20590;-81
2024/02/02 04:15:29;;;;;;;17.27;13.35;;;5.80;99.90;;;;;;5082057;28;20631;-82
2024/02/02 04:17:56;;;;;;;17.98;13.68;;;5.70;99.90;;;;;;5077865;28;20197;-81
2024/02/02 04:20:23;;;;;;;20.98;14.10;;;5.60;99.90;;;;;;5087074;28;20641;-81
2024/02/02 04:22:51;;;;;;;18.35;13.52;;;5.60;99.90;;;;;;5079218;28;20653;-81
2024/02/02 04:25:18;;;;;;;17.48;13.57;;;5.60;99.90;;;;;;5081198;28;20930;-81
2024/02/02 04:27:44;;;;;;;17.30;13.57;;;5.60;99.90;;;;;;5085021;28;20685;-81
2024/02/02 04:30:13;;;;;;;18.80;13.80;;;5.60;99.90;;;;;;5078510;28;20528;-81
2024/02/02 04:32:40;;;;;;;18.92;14.32;;;5.70;99.90;;;;;;5079508;28;20622;-81
2024/02/02 04:35:07;;;;;;;19.13;14.07;;;5.70;99.90;;;;;;5083407;28;20199;-81
2024/02/02 04:37:34;;;;;;;18.60;14.25;;;5.60;99.90;;;;;;5079486;28;20200;-81
2024/02/02 04:40:02;;;;;;;19.20;13.98;;;5.70;99.90;;;;;;5084082;28;20200;-81
2024/02/02 04:42:29;;;;;;;19.00;14.40;;;5.70;99.90;;;;;;5080619;28;20552;-81
2024/02/02 04:44:55;;;;;;;18.73;14.60;;;5.80;99.90;;;;;;5085045;28;20193;-81
2024/02/02 04:47:23;;;;;;;20.05;14.27;;;5.80;99.90;;;;;;5087690;28;20219;-82
2024/02/02 04:49:50;;;;;;;20.33;14.73;;;5.80;99.90;;;;;;5079148;28;20575;-81
2024/02/02 04:52:17;;;;;;;19.17;14.70;;;5.80;99.90;;;;;;5089159;28;20653;-81
2024/02/02 04:54:44;;;;;;;16.88;13.60;;;5.80;99.90;;;;;;5084949;28;20192;-83
2024/02/02 04:57:12;;;;;;;19.35;14.75;;;5.80;99.90;;;;;;5083633;28;20224;-81
2024/02/02 04:59:39;;;;;;;17.92;14.45;;;5.80;99.90;;;;;;5088959;28;20902;-81
2024/02/02 05:02:05;;;;;;;17.92;14.05;;;5.80;99.90;;;;;;5088092;28;20199;-81
2024/02/02 05:04:32;;;;;;;17.80;14.63;;;5.80;99.90;;;;;;5086535;28;20193;-81
2024/02/02 05:07:00;;;;;;;17.45;14.25;;;5.80;99.90;;;;;;5085148;28;21572;-80
2024/02/02 05:09:27;;;;;;;18.08;14.38;;;5.80;99.90;;;;;;5088327;28;22101;-79
2024/02/02 05:11:53;;;;;;;17.38;14.00;;;5.80;99.90;;;;;;5084825;28;20201;-80
2024/02/02 05:14:23;;;;;;;20.48;14.90;;;5.80;99.90;;;;;;5082294;28;20223;-80
2024/02/02 05:16:50;;;;;;;20.40;14.32;;;5.80;99.90;;;;;;5085919;28;20555;-80
2024/02/02 05:19:17;;;;;;;20.27;15.23;;;5.80;99.90;;;;;;5085704;28;20294;-81
2024/02/02 05:21:44;;;;;;;21.52;14.38;;;5.80;99.90;;;;;;5089993;28;20209;-82
2024/02/02 05:24:11;;;;;;;18.17;13.85;;;5.80;99.90;;;;;;5088276;28;20205;-82
2024/02/02 05:26:37;;;;;;;18.90;14.38;;;5.80;99.90;;;;;;5089907;28;20253;-82
2024/02/02 05:29:04;;;;;;;16.73;13.02;;;5.90;99.90;;;;;;5084947;28;20929;-82
2024/02/02 05:31:32;;;;;;;18.40;13.73;;;6.00;99.90;;;;;;5084535;28;20196;-81
2024/02/02 05:33:59;;;;;;;16.25;12.95;;;6.00;99.90;;;;;;5088130;28;20220;-80
2024/02/02 05:36:26;;;;;;;17.55;13.05;;;5.90;99.90;;;;;;5077073;28;20204;-82
2024/02/02 05:38:53;;;;;;;16.95;13.30;;;5.90;99.90;;;;;;5059122;28;20212;-81
2024/02/02 05:41:20;;;;;;;14.95;12.40;;;5.90;99.90;;;;;;5087463;28;20204;-80
2024/02/02 05:43:46;;;;;;;15.65;13.15;;;5.90;99.90;;;;;;5083260;28;20565;-80
2024/02/02 05:46:13;;;;;;;16.45;12.30;;;6.00;99.90;;;;;;5086252;28;20645;-81
2024/02/02 05:48:42;;;;;;;16.30;12.70;;;6.00;99.90;;;;;;5071960;28;20204;-81
2024/02/02 05:51:08;;;;;;;14.50;11.73;;;6.00;99.90;;;;;;5083982;28;20207;-79
2024/02/02 05:53:35;;;;;;;17.25;12.52;;;6.00;99.90;;;;;;5090115;28;20240;-82
2024/02/02 05:56:02;;;;;;;15.13;11.60;;;6.10;99.90;;;;;;5085942;28;20207;-81
2024/02/02 05:58:29;;;;;;;15.02;12.10;;;6.10;99.90;;;;;;5078893;28;20533;-81
2024/02/02 06:00:56;;;;;;;18.00;12.60;;;6.10;99.90;;;;;;5087940;28;20205;-82
2024/02/02 06:03:23;;;;;;;14.45;11.18;;;6.10;99.90;;;;;;5089368;28;20197;-81
2024/02/02 06:05:51;;;;;;;14.10;10.77;;;6.10;99.90;;;;;;5081628;28;20255;-81
2024/02/02 06:08:18;;;;;;;14.38;10.80;;;6.10;99.90;;;;;;5084774;28;20216;-83
2024/02/02 06:10:45;;;;;;;13.18;10.60;;;6.10;99.90;;;;;;5068276;28;20199;-83
2024/02/02 06:13:12;;;;;;;14.87;11.40;;;6.00;99.90;;;;;;5080565;28;20266;-82
2024/02/02 06:15:39;;;;;;;14.13;11.23;;;6.00;99.90;;;;;;5086305;28;20208;-82
2024/02/02 06:18:07;;;;;;;14.13;11.10;;;6.00;99.90;;;;;;5090370;28;20853;-82
2024/02/02 06:20:34;;;;;;;12.52;9.93;;;5.90;99.90;;;;;;5091300;28;20295;-84
2024/02/02 06:23:02;;;;;;;14.35;10.18;;;6.00;99.90;;;;;;5092418;28;20207;-82
2024/02/02 06:25:29;;;;;;;13.77;10.93;;;5.90;99.90;;;;;;5086341;28;20193;-83
2024/02/02 06:27:56;;;;;;;11.32;9.45;;;5.90;99.90;;;;;;5065574;28;20291;-82
2024/02/02 06:30:22;;;;;;;13.07;9.45;;;5.90;99.90;;;;;;5087266;28;20185;-83
2024/02/02 06:32:57;;;;;;;11.88;9.68;;;5.90;99.90;;;;;;5085061;28;20199;-88
2024/02/02 06:35:24;;;;;;;10.88;9.43;;;6.00;99.90;;;;;;5061572;28;20199;-81
2024/02/02 06:37:51;;;;;;;11.17;9.70;;;6.10;99.90;;;;;;5081570;28;20197;-81
2024/02/02 06:40:19;;;;;;;11.25;9.50;;;6.00;99.90;;;;;;5093034;28;20687;-81
2024/02/02 06:42:46;;;;;;;11.48;8.95;;;6.00;99.90;;;;;;5089222;28;20198;-81
2024/02/02 06:45:12;;;;;;;13.50;9.50;;;6.00;99.90;;;;;;5082315;28;20535;-81
2024/02/02 06:47:39;;;;;;;11.73;9.18;;;6.00;99.90;;;;;;5081892;28;20201;-81
2024/02/02 06:50:07;;;;;;;11.98;8.68;;;6.10;99.90;;;;;;5083549;28;20207;-81
2024/02/02 06:52:34;;;;;;;11.40;8.80;;;6.10;99.90;;;;;;5088281;28;20554;-81
2024/02/02 06:55:00;;;;;;;13.95;9.02;;;6.20;99.90;;;;;;5086039;28;20220;-82
2024/02/02 06:57:31;;;;;;;12.68;8.73;;;6.20;99.90;;;;;;5066265;28;20224;-81
2024/02/02 07:00:00;;;;;;;10.35;9.00;;;6.30;99.90;;;;;;5059723;28;20212;-84
2024/02/02 07:02:31;;;;;;;10.40;9.00;;;6.20;99.90;;;;;;5084918;28;20216;-81
2024/02/02 07:04:58;;;;;;;10.68;9.10;;;6.20;99.90;;;;;;5083269;28;20197;-84
2024/02/02 07:07:27;;;;;;;9.05;7.95;;;6.20;99.90;;;;;;5084291;28;20200;-81
2024/02/02 07:09:56;;;;;;;10.25;8.45;;;6.20;99.90;;;;;;5080947;28;20201;-81
2024/02/02 07:12:54;;;;;;;10.70;8.50;;;6.20;99.90;;;;;;5085422;28;20659;-83
2024/02/02 07:15:22;;;;;;;10.55;8.07;;;6.20;99.90;;;;;;5087902;28;20201;-83
2024/02/02 07:17:49;;;;;;;9.50;7.97;;;6.20;99.90;;;;;;5085572;28;20671;-83
2024/02/02 07:21:01;;;;;;;9.85;7.53;;;6.20;99.90;;;;;;5085598;28;20195;-79
2024/02/02 07:23:37;;;;;;;9.55;7.85;;;6.20;99.90;;;;;;5067885;28;20617;-82
2024/02/02 07:26:05;;;;;;;9.38;7.35;;;6.30;99.90;;;;;;5088104;28;20218;-82
2024/02/02 07:28:36;;;;;;;9.32;7.25;;;6.40;99.70;;;;;;5087181;28;20200;-82
2024/02/02 07:31:04;;;;;;;9.82;7.63;;;6.40;99.20;;;;;;5085355;28;20204;-81
2024/02/02 07:33:36;;;;;;;9.02;6.95;;;6.30;99.50;;;;;;5084742;28;20224;-81
2024/02/02 07:36:04;;;;;;;9.60;7.63;;;6.30;99.70;;;;;;5089352;28;20196;-82
2024/02/02 07:38:47;;;;;;;8.38;6.70;;;6.30;99.60;;;;;;5084566;28;20193;-81
2024/02/02 07:41:15;;;;;;;7.57;6.78;;;6.30;99.40;;;;;;5085684;28;20201;-81
2024/02/02 07:43:44;;;;;;;9.68;7.50;;;6.40;99.50;;;;;;5085248;28;20258;-81
2024/02/02 07:46:11;;;;;;;8.38;6.95;;;6.40;99.50;;;;;;5085481;28;20547;-80
2024/02/02 07:48:39;;;;;;;8.70;7.15;;;6.40;99.80;;;;;;5082574;28;20579;-79
2024/02/02 07:51:06;;;;;;;10.68;6.78;;;6.50;99.80;;;;;;5087217;28;20676;-79
2024/02/02 07:53:34;;;;;;;9.50;7.20;;;6.60;99.10;;;;;;5083941;28;20699;-79
2024/02/02 07:56:01;;;;;;;8.63;6.47;;;6.70;98.60;;;;;;5087590;28;20196;-81
2024/02/02 07:58:28;;;;;;;7.40;6.57;;;6.80;97.80;;;;;;5088145;28;20202;-78
2024/02/02 08:00:56;;;;;;;7.28;6.30;;;6.80;97.80;;;;;;5066207;28;20556;-79
2024/02/02 08:03:23;;;;;;;6.47;5.75;;;6.80;97.60;;;;;;5087699;28;20210;-81
2024/02/02 08:05:50;;;;;;;7.88;6.40;;;6.80;97.30;;;;;;5086513;28;20681;-79
2024/02/02 08:08:17;;;;;;;7.25;6.20;;;6.70;97.50;;;;;;5087727;28;20192;-78
2024/02/02 08:10:44;;;;;;;9.07;6.57;;;6.70;97.40;;;;;;5084569;28;20205;-78
2024/02/02 08:13:11;;;;;;;7.65;5.95;;;6.70;97.20;;;;;;5085252;28;20193;-79
2024/02/02 08:15:38;;;;;;;7.45;5.97;;;6.70;97.40;;;;;;5088026;28;20258;-79
2024/02/02 08:18:07;;;;;;;8.95;7.32;;;6.80;97.30;;;;;;5077233;28;20212;-79
2024/02/02 08:23:15;;;;;;;6.97;5.70;;;7.00;96.80;;;;;;5071598;28;20591;-79
2024/02/02 08:25:41;;;;;;;8.18;5.93;;;7.20;96.30;;;;;;5084834;28;20197;-78
2024/02/02 08:28:09;;;;;;;8.13;5.80;;;7.30;95.60;;;;;;5085451;28;20200;-78
2024/02/02 08:30:36;;;;;;;6.32;5.18;;;7.40;95.60;;;;;;5084302;28;20254;-79
2024/02/02 08:33:03;;;;;;;7.13;5.30;;;7.40;94.90;;;;;;5085957;28;20196;-82
2024/02/02 08:35:31;;;;;;;9.95;5.80;;;7.70;94.20;;;;;;5084935;28;20677;-80
2024/02/02 08:37:59;;;;;;;6.78;5.25;;;7.70;94.50;;;;;;5081766;28;20198;-81
2024/02/02 08:40:33;;;;;;;6.35;5.30;;;7.90;93.50;;;;;;5086233;28;20661;-81
2024/02/02 08:43:00;;;;;;;7.38;5.07;;;8.00;93.00;;;;;;5090673;28;20188;-79
2024/02/02 08:46:09;;;;;;;6.63;5.68;;;8.00;92.90;;;;;;5084031;28;20674;-81
2024/02/02 08:48:40;;;;;;;5.82;4.93;;;7.80;93.40;;;;;;5082450;28;20279;-79
2024/02/02 08:51:52;;;;;;;7.93;5.32;;;7.80;93.20;;;;;;5080928;28;20547;-79
2024/02/02 08:54:42;;;;;;;6.60;5.25;;;7.80;93.30;;;;;;5084187;28;20642;-80
2024/02/02 08:57:30;;;;;;;6.25;5.18;;;7.70;93.20;;;;;;5083709;28;20227;-79
2024/02/02 09:00:04;;;;;;;5.82;4.93;;;7.60;93.50;;;;;;5086581;28;20203;-78
2024/02/02 09:02:52;;;;;;;5.47;4.95;;;7.60;93.80;;;;;;5090652;28;20283;-80
2024/02/02 09:05:21;;;;;;;7.15;5.20;;;7.60;93.90;;;;;;5083236;28;20196;-79
2024/02/02 09:07:52;;;;;;;6.10;5.03;;;7.60;93.90;;;;;;5089114;28;20291;-80
2024/02/02 09:10:56;;;;;;;7.75;5.18;;;7.50;94.50;;;;;;5089106;28;20193;-80
2024/02/02 09:13:26;;;;;;;8.23;5.15;;;7.60;94.30;;;;;;5087186;28;20192;-79
2024/02/02 09:15:52;;;;;;;6.97;4.95;;;7.70;94.20;;;;;;5082824;28;20676;-79
2024/02/02 09:18:30;;;;;;;5.68;5.10;;;7.80;93.80;;;;;;5085245;28;20290;-79
2024/02/02 09:20:57;;;;;;;6.55;5.43;;;7.90;93.40;;;;;;5085524;28;20193;-79
2024/02/02 09:23:26;;;;;;;5.68;4.70;;;8.10;93.40;;;;;;5085174;28;20203;-79
2024/02/02 09:25:53;;;;;;;6.88;5.03;;;8.40;92.70;;;;;;5087693;28;20201;-79
2024/02/02 09:28:39;;;;;;;6.30;4.80;;;8.50;92.60;;;;;;5090400;28;20193;-80
2024/02/02 09:31:07;;;;;;;7.30;4.43;;;8.70;91.60;;;;;;5087669;28;20189;-79
2024/02/02 09:33:50;;;;;;;9.10;4.60;;;8.80;91.20;;;;;;5088212;28;20292;-79
2024/02/02 09:36:19;;;;;;;7.32;4.18;;;8.70;90.40;;;;;;5086400;28;20201;-79
2024/02/02 09:39:00;;;;;;;5.53;4.60;;;8.80;90.40;;;;;;5081790;28;20263;-80
2024/02/02 09:42:01;;;;;;;7.75;4.32;;;8.70;90.50;;;;;;5089942;28;20201;-82
2024/02/02 09:44:46;;;;;;;4.95;4.03;;;8.70;91.10;;;;;;5082839;28;20266;-81
2024/02/02 09:47:45;;;;;;;5.45;4.45;;;8.70;91.10;;;;;;5089575;28;20203;-80
2024/02/02 09:50:28;;;;;;;4.43;4.00;;;8.60;90.40;;;;;;5051584;28;20200;-79
2024/02/02 09:53:14;;;;;;;6.15;4.43;;;8.60;90.70;;;;;;5081979;28;20207;-79
2024/02/02 09:55:52;;;;;;;6.10;4.43;;;8.40;91.10;;;;;;5086114;28;20216;-80
2024/02/02 09:58:26;;;;;;;5.53;4.40;;;8.40;91.60;;;;;;5087563;28;20208;-80
2024/02/02 10:00:57;;;;;;;6.72;4.70;;;8.40;91.40;;;;;;5084331;28;20201;-79
2024/02/02 10:03:34;;;;;;;6.25;4.22;;;8.20;91.70;;;;;;5081011;28;20672;-79
2024/02/02 10:06:16;;;;;;;4.80;4.25;;;8.30;92.00;;;;;;5069048;28;20205;-78
2024/02/02 10:09:02;;;;;;;5.72;4.65;;;8.40;92.50;;;;;;5086768;28;20223;-79
2024/02/02 10:11:52;;;;;;;4.97;4.47;;;8.50;92.30;;;;;;5080630;28;20193;-80
2024/02/02 10:14:45;;;;;;;5.03;4.47;;;8.50;92.30;;;;;;5089160;28;20228;-79
2024/02/02 10:17:23;;;;;;;5.80;4.50;;;8.50;92.20;;;;;;5086940;28;20593;-79
2024/02/02 10:20:16;;;;;;;5.90;4.90;;;8.50;92.50;;;;;;5084153;28;20193;-80
2024/02/02 10:23:24;;;;;;;6.15;4.90;;;8.60;92.20;;;;;;5087074;28;20195;-79
2024/02/02 10:26:08;;;;;;;6.75;5.00;;;8.50;92.50;;;;;;5087136;28;20227;-78
2024/02/02 10:28:50;;;;;;;7.20;4.97;;;8.50;92.60;;;;;;5082658;28;20860;-79
2024/02/02 10:31:28;;;;;;;5.97;4.82;;;8.50;92.80;;;;;;5083500;28;20219;-78
2024/02/02 10:34:16;;;;;;;6.22;4.40;;;8.50;93.10;;;;;;5080310;28;20184;-78
2024/02/02 10:36:50;;;;;;;4.90;4.38;;;8.40;93.10;;;;;;5069524;28;20201;-79
2024/02/02 10:39:27;;;;;;;5.38;4.68;;;8.30;93.60;;;;;;5082828;28;20192;-79
2024/02/02 10:42:14;;;;;;;5.38;4.50;;;8.30;93.70;;;;;;5087988;28;20205;-80
2024/02/02 10:44:57;;;;;;;4.82;4.25;;;8.20;93.10;;;;;;5086653;28;20196;-79
2024/02/02 10:47:39;;;;;;;5.60;4.35;;;8.20;93.30;;;;;;5079489;28;20197;-81
2024/02/02 10:50:19;;;;;;;4.28;3.83;;;8.20;93.50;;;;;;5082147;28;20196;-79
2024/02/02 10:52:59;;;;;;;5.82;4.03;;;8.20;93.50;;;;;;5084536;28;20200;-80
2024/02/02 10:55:40;;;;;;;4.68;4.18;;;8.20;93.90;;;;;;5084527;28;20628;-79
2024/02/02 10:58:18;;;;;;;5.43;4.40;;;8.20;93.70;;;;;;5078466;28;20227;-79
2024/02/02 11:00:55;;;;;;;5.35;4.60;;;8.20;94.30;;;;;;5083284;28;20208;-79
2024/02/02 11:03:31;;;;;;;7.45;4.10;;;8.10;94.30;;;;;;5078775;28;20199;-79
2024/02/02 11:06:11;;;;;;;5.07;4.15;;;8.20;94.30;;;;;;5086034;28;20204;-80
2024/02/02 11:08:42;;;;;;;4.28;3.88;;;8.30;94.20;;;;;;5084875;28;20324;-79
2024/02/02 11:11:13;;;;;;;4.75;3.83;;;8.20;93.80;;;;;;5069108;28;20205;-79
2024/02/02 11:13:50;;;;;;;5.47;4.10;;;8.10;93.50;;;;;;5085816;28;20670;-78
2024/02/02 11:16:48;;;;;;;4.32;3.80;;;8.00;93.30;;;;;;5079950;28;20228;-79
2024/02/02 11:19:20;;;;;;;6.70;4.57;;;8.00;93.60;;;;;;5085450;28;20204;-79
2024/02/02 11:22:15;;;;;;;4.78;3.85;;;7.90;94.30;;;;;;5090339;28;20192;-80
2024/02/02 11:24:52;;;;;;;4.57;4.10;;;8.00;94.50;;;;;;5083447;28;20665;-80
2024/02/02 11:27:23;;;;;;;4.43;3.83;;;8.10;94.30;;;;;;5084073;28;20192;-81
2024/02/02 11:30:00;;;;;;;3.95;3.50;;;8.10;94.50;;;;;;5070652;28;20212;-84
2024/02/02 11:32:40;;;;;;;5.10;3.70;;;8.10;94.30;;;;;;5086834;28;20640;-80
2024/02/02 11:35:14;;;;;;;6.15;3.80;;;8.00;94.80;;;;;;5087020;28;20223;-79
2024/02/02 11:37:56;;;;;;;5.25;3.50;;;8.00;94.50;;;;;;5083521;28;20189;-80
2024/02/02 11:40:25;;;;;;;4.43;3.28;;;8.00;94.80;;;;;;5084667;28;20189;-81
2024/02/02 11:42:56;;;;;;;5.15;3.42;;;8.10;94.60;;;;;;5083386;28;20212;-81
2024/02/02 11:45:26;;;;;;;4.05;3.38;;;8.00;94.10;;;;;;5085402;28;20196;-81
2024/02/02 11:48:03;;;;;;;5.03;3.10;;;7.80;94.00;;;;;;5076168;28;20228;-82
2024/02/02 11:50:33;;;;;;;3.75;3.20;;;7.80;94.80;;;;;;5084950;28;20192;-81
2024/02/02 11:53:10;;;;;;;3.95;3.40;;;7.90;94.60;;;;;;5084801;28;20193;-81
2024/02/02 11:55:40;;;;;;;4.72;3.67;;;8.00;94.40;;;;;;5084690;28;20576;-81
2024/02/02 11:58:10;;;;;;;4.28;3.67;;;8.00;95.20;;;;;;5084883;28;20247;-81
2024/02/02 12:00:56;;;;;;;3.22;2.92;;;8.10;94.20;;;;;;5087748;28;20211;-82
2024/02/02 12:03:35;;;;;;;3.40;3.00;;;8.20;94.60;;;;;;5083424;28;20284;-84
2024/02/02 12:06:13;;;;;;;3.72;3.28;;;8.30;94.50;;;;;;5088604;28;20625;-84
2024/02/02 12:08:57;;;;;;;4.18;3.03;;;8.30;93.30;;;;;;5075040;28;20676;-84
2024/02/02 12:11:28;;;;;;;3.40;2.92;;;8.40;93.80;;;;;;5073638;28;20249;-82
2024/02/02 12:13:58;;;;;;;4.50;2.90;;;8.40;93.10;;;;;;5090243;28;20192;-82
2024/02/02 12:16:26;;;;;;;2.95;2.65;;;8.40;93.90;;;;;;5090545;28;20220;-81
2024/02/02 12:18:54;;;;;;;3.45;2.97;;;8.40;93.50;;;;;;5085653;28;20212;-81
2024/02/02 12:21:21;;;;;;;4.82;3.00;;;8.40;93.40;;;;;;5078190;28;20896;-81
2024/02/02 12:23:48;;;;;;;3.35;2.80;;;8.40;93.90;;;;;;5093305;28;20482;-82
2024/02/02 12:26:16;;;;;;;4.35;3.00;;;8.50;93.10;;;;;;5089179;28;20864;-82
2024/02/02 12:28:43;;;;;;;4.45;2.47;;;8.50;93.60;;;;;;5090232;28;20349;-81
2024/02/02 12:31:10;;;;;;;2.60;2.40;;;8.70;93.50;;;;;;5083493;28;20193;-82
2024/02/02 12:33:36;;;;;;;3.95;2.15;;;8.70;92.60;;;;;;5087968;28;20925;-82
2024/02/02 12:36:06;;;;;;;2.85;2.20;;;8.70;92.50;;;;;;5096080;28;20216;-80
2024/02/02 12:38:33;;;;;;;2.42;1.98;;;8.80;91.10;;;;;;5092028;28;20277;-81
2024/02/02 12:41:02;;;;;;;3.05;2.03;;;8.90;91.00;;;;;;5089210;28;20239;-81
2024/02/02 12:43:29;;;;;;;4.03;2.20;;;9.00;90.80;;;;;;5088895;28;20200;-81
2024/02/02 12:45:56;;;;;;;2.28;1.85;;;8.90;91.10;;;;;;5088419;28;20197;-81
2024/02/02 12:48:24;;;;;;;3.17;2.00;;;8.90;90.70;;;;;;5089937;28;20204;-81
2024/02/02 12:50:51;;;;;;;2.90;2.30;;;8.80;90.40;;;;;;5084712;28;20224;-81
2024/02/02 12:53:20;;;;;;;3.10;2.45;;;8.80;90.40;;;;;;5075008;28;20279;-82
2024/02/02 12:55:48;;;;;;;3.25;1.90;;;8.90;90.50;;;;;;5089455;28;20221;-81
2024/02/02 12:58:16;;;;;;;3.28;1.80;;;8.90;90.60;;;;;;5090448;28;20224;-81
2024/02/02 13:00:43;;;;;;;1.80;1.70;;;8.90;90.40;;;;;;5093464;28;20303;-81
2024/02/02 13:03:12;;;;;;;1.80;1.65;;;9.00;90.50;;;;;;5083323;28;20190;-81
2024/02/02 13:05:42;;;;;;;1.98;1.80;;;9.10;90.50;;;;;;5074731;28;20238;-80